Time;durP1;ratioP1;P1;durP2;ratioP2;P2;SDS_P1;SDS_P2;PMS_P1;PMS_P2;Temp;Humidity;BMP_temperature;BMP_pressure;BME280_temperature;BME280_humidity;BME280_pressure;Samples;Min_cycle;Max_cycle;Signal;HPM_P1;HPM_P2
2021/12/04 00:00:22;;;;;;;3.78;2.95;;;;;;;0.19;83.76;97337.47;4205482;27;20053;-71
2021/12/04 00:02:23;;;;;;;3.60;2.88;;;;;;;0.21;83.77;97333.25;4208860;27;20024;-71
2021/12/04 00:04:37;;;;;;;4.72;3.25;;;;;;;0.19;83.37;97332.03;4215020;27;20058;-71
2021/12/04 00:06:39;;;;;;;5.63;3.20;;;;;;;0.19;83.20;97332.03;4221034;27;20546;-71
2021/12/04 00:08:44;;;;;;;3.83;2.72;;;;;;;0.20;83.97;97336.31;4210006;27;20071;-71
2021/12/04 00:10:44;;;;;;;4.95;3.20;;;;;;;0.17;83.62;97329.66;4209814;27;20519;-71
2021/12/04 00:12:45;;;;;;;4.55;2.50;;;;;;;0.15;83.93;97314.78;4209126;27;20047;-71
2021/12/04 00:14:45;;;;;;;4.47;2.78;;;;;;;0.23;85.01;97322.84;4211047;27;20063;-71
2021/12/04 00:16:46;;;;;;;4.00;3.08;;;;;;;0.22;85.14;97321.25;4208872;27;20310;-71
2021/12/04 00:18:46;;;;;;;6.20;3.17;;;;;;;0.24;83.67;97323.63;4207780;27;20063;-71
2021/12/04 00:20:46;;;;;;;4.38;3.15;;;;;;;0.19;84.40;97321.13;4212671;27;20051;-71
2021/12/04 00:22:47;;;;;;;4.45;2.70;;;;;;;0.19;84.05;97316.50;4204824;28;20040;-71
2021/12/04 00:24:47;;;;;;;5.00;2.97;;;;;;;0.18;84.37;97314.13;4208904;27;20256;-71
2021/12/04 00:26:50;;;;;;;4.32;2.83;;;;;;;0.27;83.97;97312.88;4210362;27;20087;-71
2021/12/04 00:28:50;;;;;;;5.93;3.33;;;;;;;0.29;84.63;97304.38;4205567;27;20032;-71
2021/12/04 00:30:51;;;;;;;4.88;3.20;;;;;;;0.26;84.19;97313.22;4208249;27;20378;-71
2021/12/04 00:32:56;;;;;;;4.35;2.70;;;;;;;0.27;84.51;97315.59;4210221;27;20064;-71
2021/12/04 00:35:08;;;;;;;4.20;3.10;;;;;;;0.24;84.33;97310.03;4206754;27;20035;-71
2021/12/04 00:37:30;;;;;;;4.07;2.95;;;;;;;0.20;84.09;97301.75;4205897;27;20181;-71
2021/12/04 00:51:04;;;;;;;4.30;2.92;;;;;;;0.28;83.80;97281.03;4207277;27;20039;-71
2021/12/04 00:53:04;;;;;;;5.45;3.22;;;;;;;0.28;83.38;97286.47;4207238;27;20048;-71
2021/12/04 00:55:06;;;;;;;5.10;3.10;;;;;;;0.23;83.46;97279.31;4206483;27;20745;-71
2021/12/04 00:57:06;;;;;;;7.00;3.10;;;;;;;0.25;82.83;97282.50;4212939;27;20051;-71
2021/12/04 00:59:08;;;;;;;4.60;3.20;;;;;;;0.19;82.90;97267.53;4205999;28;20044;-71
2021/12/04 01:01:08;;;;;;;4.97;3.08;;;;;;;0.20;84.44;97260.94;4207255;27;20496;-71
2021/12/04 01:03:09;;;;;;;5.53;2.90;;;;;;;0.26;83.88;97261.53;4207435;27;20043;-71
2021/12/04 01:05:09;;;;;;;4.88;2.97;;;;;;;0.32;84.33;97262.06;4206263;27;20071;-71
2021/12/04 01:07:10;;;;;;;5.05;3.20;;;;;;;0.33;84.14;97263.66;4215065;27;20055;-71
2021/12/04 01:09:12;;;;;;;4.10;2.78;;;;;;;0.33;84.26;97256.28;4205098;27;20526;-71
2021/12/04 01:11:13;;;;;;;4.55;3.10;;;;;;;0.33;84.35;97252.78;4211647;27;20082;-71
2021/12/04 01:13:13;;;;;;;4.57;2.80;;;;;;;0.25;83.72;97254.50;4208059;27;20079;-71
2021/12/04 01:15:13;;;;;;;4.15;2.85;;;;;;;0.20;84.73;97258.22;4206108;27;20139;-71
2021/12/04 01:17:14;;;;;;;4.05;2.92;;;;;;;0.19;84.61;97258.56;4207045;27;20036;-71
2021/12/04 01:19:15;;;;;;;4.75;3.20;;;;;;;0.14;84.53;97261.50;4207376;27;20055;-71
2021/12/04 01:21:15;;;;;;;5.07;3.33;;;;;;;0.14;84.47;97250.63;4209986;27;20047;-71
2021/12/04 01:23:16;;;;;;;5.38;2.97;;;;;;;0.14;84.68;97259.59;4209481;28;20070;-71
2021/12/04 01:25:16;;;;;;;7.22;3.05;;;;;;;0.10;84.40;97255.97;4209188;27;20047;-71
2021/12/04 01:27:17;;;;;;;4.75;3.17;;;;;;;0.08;84.73;97235.66;4211233;27;20050;-71
2021/12/04 01:29:18;;;;;;;4.38;2.85;;;;;;;0.06;85.16;97241.44;4205630;28;20052;-71
2021/12/04 01:31:19;;;;;;;5.03;3.08;;;;;;;0.04;85.63;97240.22;4207028;27;20050;-71
2021/12/04 01:33:19;;;;;;;5.07;3.00;;;;;;;0.05;85.66;97249.94;4207653;27;20307;-71
2021/12/04 01:35:19;;;;;;;4.03;2.83;;;;;;;0.02;85.70;97250.63;4206654;27;20082;-71
2021/12/04 01:37:20;;;;;;;4.30;3.17;;;;;;;-0.01;85.92;97238.50;4212755;27;20043;-71
2021/12/04 01:39:20;;;;;;;4.82;2.80;;;;;;;-0.03;86.00;97238.03;4207062;28;20050;-71
2021/12/04 01:41:21;;;;;;;4.05;3.10;;;;;;;-0.04;86.15;97231.81;4207024;27;20359;-71
2021/12/04 01:43:21;;;;;;;4.95;3.10;;;;;;;-0.02;86.15;97226.03;4204936;27;20044;-71
2021/12/04 01:45:22;;;;;;;5.55;3.60;;;;;;;-0.03;86.84;97219.81;4208113;27;20501;-71
2021/12/04 01:47:22;;;;;;;4.70;3.17;;;;;;;-0.04;87.06;97210.06;4206459;27;20384;-71
2021/12/04 01:49:25;;;;;;;5.18;3.05;;;;;;;-0.04;87.42;97209.28;4205505;27;20495;-71
2021/12/04 01:51:25;;;;;;;3.63;2.88;;;;;;;-0.06;87.58;97206.09;4204198;28;20047;-71
2021/12/04 01:53:26;;;;;;;4.72;3.47;;;;;;;-0.06;87.52;97208.81;4207279;27;20039;-71
2021/12/04 01:55:30;;;;;;;4.63;3.22;;;;;;;-0.10;87.54;97205.19;4205765;27;20090;-71
2021/12/04 01:57:32;;;;;;;5.18;3.30;;;;;;;-0.10;87.96;97202.47;4203903;27;20537;-71
2021/12/04 01:59:33;;;;;;;4.35;2.92;;;;;;;-0.11;88.00;97203.59;4213256;27;20052;-71
2021/12/04 02:01:33;;;;;;;4.72;3.00;;;;;;;-0.14;88.27;97209.72;4206372;28;20125;-71
2021/12/04 02:03:34;;;;;;;6.55;3.65;;;;;;;-0.16;88.92;97201.91;4206138;28;20048;-71
2021/12/04 02:05:39;;;;;;;5.57;2.97;;;;;;;-0.16;89.03;97199.19;4204993;28;20051;-71
2021/12/04 02:07:39;;;;;;;4.00;2.70;;;;;;;-0.17;89.03;97200.31;4209143;27;20039;-71
2021/12/04 02:09:39;;;;;;;3.70;2.80;;;;;;;-0.18;89.35;97187.06;4204624;28;20036;-71
2021/12/04 02:11:40;;;;;;;6.25;3.03;;;;;;;-0.16;89.14;97195.69;4205806;28;20399;-71
2021/12/04 02:13:40;;;;;;;5.60;3.65;;;;;;;-0.19;89.59;97191.69;4213113;27;20040;-71
2021/12/04 02:15:41;;;;;;;4.38;3.33;;;;;;;-0.18;90.02;97190.56;4205698;28;20040;-71
2021/12/04 02:17:46;;;;;;;4.60;3.28;;;;;;;-0.13;89.83;97187.63;4207839;28;20036;-71
2021/12/04 02:19:47;;;;;;;4.20;3.30;;;;;;;-0.14;90.19;97177.09;4209032;27;20412;-71
2021/12/04 02:21:48;;;;;;;3.75;3.15;;;;;;;-0.15;90.24;97172.81;4206438;27;20051;-71
2021/12/04 02:23:48;;;;;;;4.95;3.17;;;;;;;-0.16;90.22;97180.16;4205226;28;20044;-71
2021/12/04 02:25:48;;;;;;;3.90;2.95;;;;;;;-0.17;90.49;97164.16;4205918;28;20182;-71
2021/12/04 02:27:50;;;;;;;5.05;3.08;;;;;;;-0.17;90.99;97178.56;4205874;27;20251;-71
2021/12/04 02:29:50;;;;;;;6.25;3.28;;;;;;;-0.21;91.07;97163.28;4204421;28;20180;-71
2021/12/04 02:31:55;;;;;;;4.65;3.10;;;;;;;-0.20;90.98;97157.50;4206911;27;20442;-71
2021/12/04 02:33:56;;;;;;;7.10;3.80;;;;;;;-0.21;90.98;97158.63;4206770;28;20365;-71
2021/12/04 02:35:57;;;;;;;4.07;3.00;;;;;;;-0.19;90.61;97156.34;4208033;28;20093;-71
2021/12/04 02:37:57;;;;;;;4.70;3.53;;;;;;;-0.21;90.68;97153.19;4205116;28;20048;-71
2021/12/04 02:39:59;;;;;;;3.63;2.88;;;;;;;-0.17;90.61;97161.44;4204913;28;20537;-71
2021/12/04 02:42:00;;;;;;;5.10;3.55;;;;;;;-0.17;90.63;97150.56;4205068;28;20415;-71
2021/12/04 02:44:02;;;;;;;5.50;3.33;;;;;;;-0.17;90.86;97158.72;4206502;28;20312;-71
2021/12/04 02:46:03;;;;;;;5.95;3.13;;;;;;;-0.20;90.92;97143.91;4206952;28;20042;-71
2021/12/04 02:48:04;;;;;;;5.68;3.20;;;;;;;-0.22;91.31;97148.91;4204928;28;20032;-71
2021/12/04 02:50:10;;;;;;;5.63;3.30;;;;;;;-0.20;90.93;97141.19;4206649;28;20035;-71
2021/12/04 02:52:12;;;;;;;4.05;2.83;;;;;;;-0.21;90.84;97142.31;4208356;28;20024;-71
2021/12/04 02:54:12;;;;;;;5.30;3.30;;;;;;;-0.21;90.82;97146.97;4206571;27;20032;-71
2021/12/04 02:56:13;;;;;;;4.97;3.67;;;;;;;-0.21;91.03;97139.59;4206982;28;20209;-71
2021/12/04 02:58:15;;;;;;;4.70;3.13;;;;;;;-0.18;91.13;97133.47;4205800;28;20024;-71
2021/12/04 03:00:19;;;;;;;6.03;3.53;;;;;;;-0.19;90.88;97134.59;4205978;27;20032;-71
2021/12/04 03:02:21;;;;;;;4.32;3.40;;;;;;;-0.18;91.34;97125.31;4210168;27;20275;-71
2021/12/04 03:04:24;;;;;;;4.32;3.33;;;;;;;-0.18;90.88;97125.31;4214955;27;20093;-71
2021/12/04 03:06:24;;;;;;;;;;;;;;;-0.20;91.17;97119.44;4207323;27;20059;-71
2021/12/04 03:08:25;;;;;;;3.80;3.10;;;;;;;-0.20;91.00;97119.44;4208327;27;19927;-71
2021/12/04 03:10:26;;;;;;;5.20;2.78;;;;;;;-0.16;91.11;97119.56;4209227;27;20316;-71
2021/12/04 03:12:26;;;;;;;4.53;3.00;;;;;;;-0.17;91.02;97116.03;4211983;27;20032;-71
2021/12/04 03:14:27;;;;;;;5.05;3.20;;;;;;;-0.18;91.24;97119.88;4206588;27;20036;-71
2021/12/04 03:16:28;;;;;;;5.90;3.13;;;;;;;-0.18;90.92;97110.94;4210181;27;20048;-71
2021/12/04 03:18:28;;;;;;;5.72;3.40;;;;;;;-0.21;91.77;97115.13;4209043;27;20208;-71
2021/12/04 03:20:28;;;;;;;8.63;4.93;;;;;;;-0.24;91.63;97104.16;4206236;27;20044;-71
2021/12/04 03:22:29;;;;;;;8.57;5.47;;;;;;;-0.26;92.32;97101.75;4209710;27;20403;-71
2021/12/04 03:24:32;;;;;;;8.05;4.72;;;;;;;-0.24;92.22;97099.53;4209341;27;20379;-71
2021/12/04 03:26:34;;;;;;;8.23;4.30;;;;;;;-0.27;92.46;97097.47;4209095;27;20546;-71
2021/12/04 03:28:35;;;;;;;5.97;3.70;;;;;;;-0.25;92.66;97103.34;4212315;27;20124;-71
2021/12/04 03:30:45;;;;;;;7.82;3.88;;;;;;;-0.25;92.48;97105.28;4214145;27;20445;-71
2021/12/04 03:35:14;;;;;;;5.65;3.25;;;;;;;-0.26;92.64;97106.41;4211740;27;20040;-70
2021/12/04 03:35:19;;;;;;;6.20;3.83;;;;;;;-0.27;92.78;97100.19;4207272;27;20055;-71
2021/12/04 03:41:57;;;;;;;8.15;4.47;;;;;;;-0.25;92.79;97092.47;4209297;27;20172;-71
2021/12/04 03:43:58;;;;;;;6.75;4.35;;;;;;;-0.23;92.53;97101.09;4208380;27;20790;-71
2021/12/04 03:46:03;;;;;;;7.78;4.50;;;;;;;-0.22;92.25;97097.25;4205976;27;20051;-71
2021/12/04 03:48:09;;;;;;;6.65;3.97;;;;;;;-0.23;92.50;97101.09;4214513;27;20643;-71
2021/12/04 03:50:09;;;;;;;7.22;3.58;;;;;;;-0.22;92.32;97082.88;4211537;27;20419;-71
2021/12/04 03:52:10;;;;;;;6.35;3.80;;;;;;;-0.21;92.76;97087.94;4207364;27;20093;-71
2021/12/04 03:54:10;;;;;;;9.63;3.78;;;;;;;-0.20;92.02;97086.81;4207780;27;20418;-71
2021/12/04 03:56:12;;;;;;;4.68;3.22;;;;;;;-0.19;92.23;97088.41;4208764;27;20097;-71
2021/12/04 03:58:12;;;;;;;5.88;3.53;;;;;;;-0.20;92.06;97081.38;4207749;27;20031;-71
2021/12/04 04:00:15;;;;;;;6.97;3.58;;;;;;;-0.23;92.26;97084.00;4212719;27;20048;-71
2021/12/04 04:02:16;;;;;;;7.40;3.45;;;;;;;-0.23;92.53;97075.84;4213108;27;20036;-71
2021/12/04 04:04:17;;;;;;;4.97;3.37;;;;;;;-0.26;92.57;97079.22;4209076;27;20035;-71
2021/12/04 04:06:17;;;;;;;5.28;3.35;;;;;;;-0.26;92.58;97085.47;4212590;27;20099;-71
2021/12/04 04:08:18;;;;;;;5.05;3.47;;;;;;;-0.24;93.36;97074.25;4207536;27;20375;-71
2021/12/04 04:10:20;;;;;;;4.63;3.10;;;;;;;-0.22;92.68;97078.22;4206784;27;20116;-71
2021/12/04 04:12:20;;;;;;;5.85;3.33;;;;;;;-0.22;92.55;97069.28;4214978;27;20064;-71
2021/12/04 04:14:22;;;;;;;4.43;2.90;;;;;;;-0.22;92.47;97069.28;4211679;27;20067;-71
2021/12/04 04:16:23;;;;;;;4.82;3.15;;;;;;;-0.22;92.56;97066.56;4208131;27;20691;-71
2021/12/04 04:18:23;;;;;;;4.57;3.30;;;;;;;-0.25;92.53;97061.78;4207619;27;20036;-71
2021/12/04 04:20:23;;;;;;;4.15;2.65;;;;;;;-0.25;92.57;97067.22;4207708;27;20049;-71
2021/12/04 04:22:23;;;;;;;4.07;3.10;;;;;;;-0.23;92.84;97060.31;4213470;27;20071;-71
2021/12/04 04:24:28;;;;;;;4.20;3.03;;;;;;;-0.18;92.62;97060.06;4208958;27;20059;-71
2021/12/04 04:26:28;;;;;;;4.95;3.03;;;;;;;-0.22;92.54;97056.47;4206417;27;20110;-71
2021/12/04 04:28:29;;;;;;;4.32;3.10;;;;;;;-0.19;92.51;97061.22;4207092;27;20117;-71
2021/12/04 04:30:29;;;;;;;5.18;3.47;;;;;;;-0.22;92.47;97044.81;4208313;27;20044;-71
2021/12/04 04:32:30;;;;;;;4.15;3.10;;;;;;;-0.18;92.81;97046.47;4211814;27;20055;-71
2021/12/04 04:34:33;;;;;;;4.00;3.10;;;;;;;-0.18;92.82;97042.97;4209462;27;20032;-71
2021/12/04 04:38:47;;;;;;;7.15;3.10;;;;;;;-0.20;92.87;97043.31;4209985;27;20468;-71
2021/12/04 04:57:36;;;;;;;6.82;3.72;;;;;;;-0.18;92.72;97040.25;4209613;27;20086;-71
2021/12/04 05:11:05;;;;;;;5.57;3.22;;;;;;;-0.13;91.99;97032.66;4210746;27;20456;-71
2021/12/04 05:13:08;;;;;;;5.47;3.35;;;;;;;-0.13;91.70;97016.34;4206791;27;20048;-71
2021/12/04 05:15:14;;;;;;;7.95;3.53;;;;;;;-0.11;91.57;97027.66;4206533;27;20046;-71
2021/12/04 05:17:26;;;;;;;4.55;2.80;;;;;;;-0.13;90.66;97018.28;4211604;27;20044;-71
2021/12/04 05:19:37;;;;;;;3.83;2.83;;;;;;;-0.14;91.20;97020.22;4210269;27;20406;-71
2021/12/04 05:21:38;;;;;;;3.47;2.72;;;;;;;-0.11;91.66;97010.56;4213150;27;20065;-71
2021/12/04 05:23:48;;;;;;;4.32;2.95;;;;;;;-0.13;91.83;97004.69;4210052;27;20429;-71
2021/12/04 05:25:50;;;;;;;3.83;2.90;;;;;;;-0.13;91.68;97000.03;4206105;27;20032;-71
2021/12/04 05:27:50;;;;;;;3.35;2.50;;;;;;;-0.17;91.66;97003.78;4205099;27;20278;-71
2021/12/04 05:29:51;;;;;;;3.97;2.42;;;;;;;-0.15;91.85;96998.81;4205114;27;20380;-71
2021/12/04 05:31:51;;;;;;;3.40;2.67;;;;;;;-0.18;91.76;97002.19;4208152;27;20044;-71
2021/12/04 05:33:52;;;;;;;4.20;2.00;;;;;;;-0.18;91.75;97007.63;4207064;27;20139;-71
2021/12/04 05:35:53;;;;;;;3.00;2.17;;;;;;;-0.19;91.75;97004.13;4216073;27;20576;-71
2021/12/04 05:37:54;;;;;;;3.38;2.38;;;;;;;-0.19;91.88;96993.25;4209930;27;20051;-71
2021/12/04 05:39:54;;;;;;;4.25;2.60;;;;;;;-0.15;91.97;96986.00;4212273;28;20395;-71
2021/12/04 05:41:55;;;;;;;2.95;2.05;;;;;;;-0.18;91.85;96985.88;4212203;28;20203;-71
2021/12/04 05:43:56;;;;;;;3.13;2.08;;;;;;;-0.17;91.71;96988.25;4208354;27;20040;-71
2021/12/04 05:46:04;;;;;;;2.15;1.70;;;;;;;-0.13;91.55;96982.94;4210965;27;20047;-71
2021/12/04 05:52:40;;;;;;;2.45;1.88;;;;;;;-0.16;92.07;96970.06;4176805;27;20078;-71
2021/12/04 05:56:41;;;;;;;3.28;2.40;;;;;;;-0.16;91.90;96970.06;4210415;27;20040;-71
2021/12/04 05:58:41;;;;;;;2.22;1.88;;;;;;;-0.17;91.70;96971.94;4213875;27;20036;-71
2021/12/04 06:00:41;;;;;;;3.10;2.50;;;;;;;-0.16;91.86;96973.56;4210883;27;20092;-71
2021/12/04 06:02:42;;;;;;;5.40;3.15;;;;;;;-0.18;92.03;96962.22;4211063;27;20420;-71
2021/12/04 06:04:42;;;;;;;5.50;3.35;;;;;;;-0.16;92.38;96967.34;4210132;27;20704;-71
2021/12/04 06:06:44;;;;;;;4.30;3.00;;;;;;;-0.16;92.29;96964.63;4212200;27;20556;-71
2021/12/04 06:08:44;;;;;;;6.15;3.95;;;;;;;-0.13;92.27;96977.50;4210892;28;20127;-72
2021/12/04 06:10:45;;;;;;;5.85;4.05;;;;;;;-0.18;92.34;96970.38;4211359;27;20799;-71
2021/12/04 06:12:45;;;;;;;5.47;3.65;;;;;;;-0.16;92.52;96979.00;4209220;27;20075;-71
2021/12/04 06:14:48;;;;;;;5.43;3.40;;;;;;;-0.17;92.56;96980.09;4208843;28;20048;-71
2021/12/04 06:16:49;;;;;;;4.53;3.45;;;;;;;-0.18;92.88;96978.53;4211725;27;20090;-71
2021/12/04 06:18:52;;;;;;;5.75;3.40;;;;;;;-0.16;92.52;96978.22;4211146;28;20044;-71
2021/12/04 06:23:12;;;;;;;9.10;5.93;;;;;;;-0.14;93.09;96973.22;4211188;27;20102;-71
2021/12/04 06:25:19;;;;;;;11.93;7.10;;;;;;;-0.12;92.92;96968.22;4210346;27;20702;-72
2021/12/04 06:27:20;;;;;;;12.73;8.80;;;;;;;-0.11;92.18;96962.41;4211011;28;20070;-71
2021/12/04 06:29:21;;;;;;;10.95;7.82;;;;;;;-0.06;91.88;96967.63;4209223;27;20131;-71
2021/12/04 06:31:22;;;;;;;12.48;7.68;;;;;;;-0.07;91.96;96959.81;4210012;28;20209;-71
2021/12/04 06:33:22;;;;;;;8.70;6.32;;;;;;;-0.08;91.72;96964.47;4213194;27;20066;-71
2021/12/04 06:35:23;;;;;;;7.70;5.15;;;;;;;-0.12;92.17;96966.28;4213823;27;20055;-71
2021/12/04 06:37:24;;;;;;;6.65;4.50;;;;;;;-0.18;92.26;96964.94;4213403;27;20094;-71
2021/12/04 06:39:24;;;;;;;7.65;4.75;;;;;;;-0.23;93.15;96965.19;4208390;27;20040;-71
2021/12/04 06:41:24;;;;;;;6.72;5.10;;;;;;;-0.25;93.27;96964.72;4210621;27;20105;-71
2021/12/04 06:43:25;;;;;;;10.60;6.50;;;;;;;-0.27;93.53;96964.28;4215492;27;20055;-71
2021/12/04 06:45:29;;;;;;;9.65;6.20;;;;;;;-0.31;93.50;96964.19;4211030;27;20071;-72
2021/12/04 06:47:31;;;;;;;15.95;7.57;;;;;;;-0.32;94.04;96964.53;4209132;27;20205;-71
2021/12/04 06:49:36;;;;;;;14.45;8.52;;;;;;;-0.34;93.83;96973.00;4208209;27;20047;-71
2021/12/04 06:51:44;;;;;;;12.07;7.05;;;;;;;-0.35;94.29;96971.44;4208530;27;20909;-71
2021/12/04 06:55:54;;;;;;;9.02;5.43;;;;;;;-0.42;94.96;96987.53;4214371;27;20039;-71
2021/12/04 06:57:54;;;;;;;7.45;4.63;;;;;;;-0.39;95.18;96986.06;4209044;27;20054;-71
2021/12/04 06:59:56;;;;;;;5.85;4.07;;;;;;;-0.41;94.89;96970.09;4213282;27;20483;-71
2021/12/04 07:01:56;;;;;;;5.72;3.50;;;;;;;-0.41;95.07;96974.75;4206681;27;20071;-71
2021/12/04 07:03:57;;;;;;;8.18;3.95;;;;;;;-0.41;95.08;96983.69;4210345;27;20075;-71
2021/12/04 07:05:57;;;;;;;4.22;3.40;;;;;;;-0.42;94.90;96973.94;4209630;27;20540;-71
2021/12/04 07:07:57;;;;;;;4.68;3.63;;;;;;;-0.44;95.06;96978.94;4209222;27;20082;-71
2021/12/04 07:09:58;;;;;;;5.68;3.40;;;;;;;-0.45;95.38;96980.06;4209677;27;20032;-71
2021/12/04 07:11:59;;;;;;;4.78;3.70;;;;;;;-0.44;95.71;96981.66;4214177;27;20040;-71
2021/12/04 07:14:00;;;;;;;4.23;3.43;;;;;;;-0.43;95.60;96977.78;4212145;27;20495;-71
2021/12/04 07:16:03;;;;;;;4.85;2.97;;;;;;;-0.44;95.94;96978.94;4210671;27;20066;-71
2021/12/04 07:18:04;;;;;;;5.95;3.25;;;;;;;-0.42;95.88;96981.28;4209910;27;20040;-71
2021/12/04 07:20:06;;;;;;;7.20;3.65;;;;;;;-0.42;95.93;96986.72;4207918;27;20063;-71
2021/12/04 07:22:08;;;;;;;3.50;2.85;;;;;;;-0.41;95.66;96991.06;4210917;27;20067;-71
2021/12/04 07:24:10;;;;;;;5.60;3.93;;;;;;;-0.41;95.73;96975.53;4207181;27;20452;-71
2021/12/04 07:26:10;;;;;;;4.55;3.50;;;;;;;-0.37;95.55;96962.06;4209570;27;20190;-71
2021/12/04 07:28:11;;;;;;;6.28;4.22;;;;;;;-0.31;95.37;96966.91;4211021;27;20431;-71
2021/12/04 07:30:11;;;;;;;4.97;3.78;;;;;;;-0.28;94.67;96955.34;4208057;27;20082;-71
2021/12/04 07:32:11;;;;;;;7.38;5.20;;;;;;;-0.28;94.44;96952.63;4206644;27;20039;-71
2021/12/04 07:34:12;;;;;;;6.03;4.60;;;;;;;-0.25;94.49;96958.50;4211254;27;20452;-71
2021/12/04 07:36:13;;;;;;;5.85;4.53;;;;;;;-0.29;94.45;96947.53;4209859;27;20045;-71
2021/12/04 07:38:14;;;;;;;5.55;4.68;;;;;;;-0.24;94.37;96950.03;4209255;27;20086;-71
2021/12/04 07:40:14;;;;;;;6.00;4.47;;;;;;;-0.23;94.51;96956.25;4206330;27;20666;-71
2021/12/04 07:42:15;;;;;;;7.32;4.32;;;;;;;-0.23;94.09;96945.38;4210067;27;20043;-71
2021/12/04 07:44:15;;;;;;;7.03;4.70;;;;;;;-0.24;93.70;96947.31;4216219;27;20032;-71
2021/12/04 07:46:15;;;;;;;7.95;5.00;;;;;;;-0.22;93.73;96944.25;4208526;27;20162;-71
2021/12/04 07:48:16;;;;;;;8.43;5.32;;;;;;;-0.19;93.99;96949.75;4205931;27;20024;-71
2021/12/04 07:50:16;;;;;;;7.25;4.55;;;;;;;-0.12;93.53;96941.81;4208359;27;20036;-71
2021/12/04 07:52:17;;;;;;;7.78;4.18;;;;;;;-0.11;93.42;96939.88;4209973;27;20146;-71
2021/12/04 07:54:18;;;;;;;7.30;4.72;;;;;;;-0.08;93.29;96944.66;4205962;27;20058;-71
2021/12/04 07:56:18;;;;;;;6.53;4.00;;;;;;;-0.08;93.25;96936.50;4212524;27;20039;-71
2021/12/04 07:58:19;;;;;;;7.45;4.15;;;;;;;-0.07;93.15;96935.34;4213134;27;20402;-71
2021/12/04 08:00:21;;;;;;;6.55;4.05;;;;;;;-0.05;93.42;96931.13;4212118;27;20035;-71
2021/12/04 08:02:21;;;;;;;5.97;4.07;;;;;;;-0.04;93.63;96932.72;4213065;27;20048;-71
2021/12/04 08:04:23;;;;;;;7.45;4.07;;;;;;;-0.04;93.49;96932.72;4212823;27;20039;-71
2021/12/04 08:06:23;;;;;;;6.07;4.70;;;;;;;-0.03;93.31;96947.09;4214680;27;20056;-71
2021/12/04 08:08:23;;;;;;;5.40;3.65;;;;;;;-0.02;93.05;96946.75;4211574;27;20047;-71
2021/12/04 08:10:24;;;;;;;5.18;3.60;;;;;;;-0.03;93.17;96933.50;4212801;27;20043;-71
2021/12/04 08:12:24;;;;;;;4.93;3.70;;;;;;;-0.02;92.92;96940.53;4215653;27;20555;-71
2021/12/04 08:14:25;;;;;;;5.25;3.40;;;;;;;0.00;93.29;96938.28;4208904;27;20032;-71
2021/12/04 08:16:25;;;;;;;4.68;3.35;;;;;;;0.03;93.14;96934.06;4206592;27;20043;-71
2021/12/04 08:18:26;;;;;;;6.32;3.78;;;;;;;0.05;92.99;96934.50;4208832;27;20520;-71
2021/12/04 08:20:27;;;;;;;4.93;3.70;;;;;;;0.07;92.66;96932.22;4212390;27;20043;-71
2021/12/04 08:22:27;;;;;;;4.78;3.33;;;;;;;0.07;92.81;96932.22;4207986;27;20044;-71
2021/12/04 08:24:27;;;;;;;6.10;4.28;;;;;;;0.12;92.38;96931.97;4212833;27;20051;-71
2021/12/04 08:26:28;;;;;;;5.63;3.60;;;;;;;0.11;92.54;96925.75;4211460;27;20054;-71
2021/12/04 08:28:28;;;;;;;7.95;3.90;;;;;;;0.13;92.69;96928.91;4211777;27;20044;-71
2021/12/04 08:30:33;;;;;;;12.05;5.10;;;;;;;0.13;92.83;96922.69;4212163;27;20171;-71
2021/12/04 08:32:35;;;;;;;10.10;5.88;;;;;;;0.13;92.51;96919.97;4211770;27;20106;-71
2021/12/04 08:34:37;;;;;;;7.57;5.55;;;;;;;0.16;92.06;96922.75;4211887;27;20398;-71
2021/12/04 08:36:37;;;;;;;10.35;6.70;;;;;;;0.16;91.92;96913.81;4213178;27;20464;-71
2021/12/04 08:38:38;;;;;;;7.28;5.10;;;;;;;0.20;91.85;96925.59;4216211;27;20043;-71
2021/12/04 08:40:40;;;;;;;6.63;5.10;;;;;;;0.20;91.60;96923.66;4211885;27;20040;-71
2021/12/04 08:42:42;;;;;;;4.72;3.67;;;;;;;0.23;92.13;96928.41;4210490;27;20051;-71
2021/12/04 08:44:43;;;;;;;;;;;;;;;0.23;93.14;96927.59;4206907;27;20439;-71
2021/12/04 08:46:44;;;;;;;6.53;4.10;;;;;;;0.20;93.02;96918.22;4210058;27;19919;-71
2021/12/04 08:48:45;;;;;;;7.53;4.25;;;;;;;0.25;92.80;96914.47;4205789;27;20044;-71
2021/12/04 08:50:45;;;;;;;4.47;3.42;;;;;;;0.26;92.75;96908.69;4208570;27;20091;-71
2021/12/04 08:52:46;;;;;;;6.47;4.72;;;;;;;0.27;92.49;96910.25;4210713;27;20028;-71
2021/12/04 08:54:46;;;;;;;3.95;3.10;;;;;;;0.30;92.71;96910.69;4206439;28;20109;-71
2021/12/04 08:56:47;;;;;;;5.30;3.15;;;;;;;0.30;92.38;96916.91;4214818;27;20364;-71
2021/12/04 08:58:47;;;;;;;4.60;3.50;;;;;;;0.33;92.76;96927.09;4206483;27;20036;-71
2021/12/04 09:00:55;;;;;;;5.38;3.83;;;;;;;0.34;93.27;96923.25;4214480;27;20475;-71
2021/12/04 09:02:56;;;;;;;4.28;3.20;;;;;;;0.34;92.94;96923.25;4206491;27;20043;-71
2021/12/04 09:04:58;;;;;;;6.22;3.47;;;;;;;0.36;93.57;96918.25;4209253;27;20647;-71
2021/12/04 09:06:59;;;;;;;5.32;2.88;;;;;;;0.37;93.01;96916.31;4211709;27;20375;-71
2021/12/04 09:08:59;;;;;;;4.47;3.30;;;;;;;0.41;93.45;96919.91;4207003;27;20387;-71
2021/12/04 09:11:07;;;;;;;5.15;3.45;;;;;;;0.43;93.19;96920.38;4206386;27;20050;-71
2021/12/04 09:13:09;;;;;;;4.93;3.35;;;;;;;0.45;93.09;96924.31;4208986;27;20040;-71
2021/12/04 09:15:12;;;;;;;8.52;5.30;;;;;;;0.49;92.88;96918.94;4210724;27;20054;-71
2021/12/04 09:17:15;;;;;;;7.60;6.15;;;;;;;0.49;93.14;96913.50;4210408;27;20564;-71
2021/12/04 09:19:15;;;;;;;9.40;5.53;;;;;;;0.53;93.22;96928.00;4211050;27;20044;-71
2021/12/04 09:21:18;;;;;;;6.20;5.45;;;;;;;0.55;91.52;96926.50;4209057;27;20078;-71
2021/12/04 09:23:20;;;;;;;7.05;4.68;;;;;;;0.58;91.53;96927.75;4208129;27;20052;-71
2021/12/04 09:25:23;;;;;;;8.45;4.68;;;;;;;0.60;91.11;96920.03;4204549;28;20040;-71
2021/12/04 09:29:59;;;;;;;5.45;4.00;;;;;;;0.66;90.69;96917.81;4205120;27;19919;-70
2021/12/04 10:14:10;;;;;;;5.85;3.72;;;;;;;1.23;88.24;96875.56;4204714;28;20132;-71
2021/12/04 10:32:27;;;;;;;2.90;2.45;;;;;;;1.49;86.43;96850.44;4208907;27;20054;-71
2021/12/04 10:34:32;;;;;;;3.75;2.47;;;;;;;1.50;86.30;96839.19;4208011;28;20036;-71
2021/12/04 10:36:38;;;;;;;3.50;2.90;;;;;;;1.55;86.38;96832.66;4209690;27;20346;-71
2021/12/04 10:38:44;;;;;;;3.95;2.88;;;;;;;1.56;85.34;96832.28;4215964;28;20428;-71
2021/12/04 10:40:47;;;;;;;3.65;2.55;;;;;;;1.58;85.63;96830.03;4206565;28;20039;-71
2021/12/04 10:42:59;;;;;;;4.15;3.13;;;;;;;1.61;87.69;96826.56;4205830;28;20492;-71
2021/12/04 10:45:03;;;;;;;4.00;3.22;;;;;;;1.71;88.03;96827.13;4206790;28;20036;-71
2021/12/04 10:47:15;;;;;;;4.03;3.13;;;;;;;1.76;87.03;96813.22;4206396;28;20634;-71
2021/12/04 10:49:18;;;;;;;3.83;3.07;;;;;;;1.75;86.17;96817.09;4210710;28;20044;-71
2021/12/04 10:51:33;;;;;;;8.13;4.55;;;;;;;1.77;86.15;96826.47;4207433;28;20032;-71
2021/12/04 10:53:38;;;;;;;7.60;4.32;;;;;;;1.77;85.41;96814.78;4208693;28;20133;-71
2021/12/04 11:00:58;;;;;;;4.05;2.83;;;;;;;1.77;86.30;96814.78;4208361;28;20040;-71
2021/12/04 11:02:51;;;;;;;3.78;2.70;;;;;;;1.76;84.94;96813.22;4200596;28;20129;-71
2021/12/04 11:05:25;;;;;;;2.92;2.40;;;;;;;1.75;84.43;96806.97;4210251;28;20533;-71
2021/12/04 11:19:21;;;;;;;3.72;3.08;;;;;;;1.67;85.18;96784.25;4210396;28;20130;-71
2021/12/04 11:26:24;;;;;;;3.42;2.75;;;;;;;1.64;85.62;96760.41;4210007;27;20036;-71
2021/12/04 11:28:41;;;;;;;4.07;2.70;;;;;;;1.67;85.56;96764.38;4211735;27;20036;-71
2021/12/04 11:41:54;;;;;;;5.28;2.85;;;;;;;1.63;86.24;96747.13;4207183;27;20040;-71
2021/12/04 11:44:11;;;;;;;13.55;8.23;;;;;;;1.63;86.65;96747.13;4206089;27;20047;-71
2021/12/04 11:46:19;;;;;;;19.83;10.95;;;;;;;1.61;87.61;96736.59;4209147;27;20482;-71
2021/12/04 11:48:31;;;;;;;12.23;8.23;;;;;;;1.62;87.60;96737.38;4210815;27;20106;-71
2021/12/04 11:50:35;;;;;;;9.48;5.85;;;;;;;1.62;87.36;96731.94;4206746;28;20039;-71
2021/12/04 11:52:45;;;;;;;5.65;3.90;;;;;;;1.63;87.56;96723.41;4209424;27;20036;-71
2021/12/04 11:54:57;;;;;;;5.13;3.70;;;;;;;1.63;87.66;96719.88;4209630;27;20382;-71
2021/12/04 11:57:10;;;;;;;8.00;5.70;;;;;;;1.61;87.59;96720.25;4209903;27;20055;-71
2021/12/04 11:59:10;;;;;;;6.43;4.22;;;;;;;1.60;88.27;96712.44;4206379;27;20055;-71
2021/12/04 12:01:32;;;;;;;5.70;4.10;;;;;;;1.58;87.78;96709.28;4209340;27;20047;-71
2021/12/04 12:03:35;;;;;;;4.28;3.15;;;;;;;1.61;88.17;96700.38;4210042;27;20055;-71
2021/12/04 12:05:47;;;;;;;4.18;3.45;;;;;;;1.60;87.69;96699.59;4208681;27;20040;-71
2021/12/04 12:07:51;;;;;;;5.03;3.10;;;;;;;1.61;88.35;96703.09;4207830;27;20047;-71
2021/12/04 12:10:22;;;;;;;3.90;2.97;;;;;;;1.65;88.19;96695.75;4207291;27;20032;-71